This is the latest recevied weather packets stored in our database for station/object AK6OS. If no packets are shown the sender has not sent any weather packets the latest 10 day(s).
| Time | Temp. | Humidity | Pressure | Rain* | Wind** | Luminosity | Snow |
|---|---|---|---|---|---|---|---|
| 1777629317 | 12.22° C | 94% | 1015.4 hPa | 0 mm | - | 0 W/m² | - |
| 1777624517 | 12.22° C | 93% | 1015.8 hPa | 0 mm | - | 0 W/m² | - |
| 1777620339 | 11.67° C | 92% | 1016.3 hPa | 0 mm | - | 0 W/m² | - |
| 1777614337 | 12.78° C | 89% | 1016 hPa | 0 mm | - | 0 W/m² | - |
| 1777613717 | 12.78° C | 89% | 1016 hPa | 0 mm | - | 0 W/m² | - |
| 1777612518 | 12.78° C | 88% | 1015.9 hPa | 0 mm | - | 0 W/m² | - |
| 1777610718 | 13.33° C | 87% | 1015.9 hPa | 0 mm | - | 0 W/m² | - |
| 1777603517 | 16.11° C | 75% | 1014.3 hPa | 0 mm | - | 7 W/m² | - |
| 1777602937 | 16.67° C | 74% | 1014.2 hPa | 0 mm | - | 16 W/m² | - |
| 1777601118 | 18.33° C | 69% | 1013.9 hPa | 0 mm | - | 63 W/m² | - |
| 1777595737 | 21.67° C | 61% | 1013.3 hPa | 0 mm | - | 341 W/m² | - |
| 1777594516 | 23.33° C | 57% | 1013.2 hPa | 0 mm | - | 410 W/m² | - |
| 1777593917 | 23.33° C | 56% | 1013.1 hPa | 0 mm | - | 445 W/m² | - |
| 1777587919 | 22.78° C | 59% | 1013.8 hPa | 0 mm | - | 749 W/m² | - |
| 1777584316 | 22.22° C | 61% | 1014.1 hPa | 0 mm | - | 874 W/m² | - |
| 1777583716 | 22.22° C | 61% | 1014.1 hPa | 0 mm | - | 890 W/m² | - |
| 1777583138 | 22.22° C | 61% | 1014.2 hPa | 0 mm | - | 903 W/m² | - |
| 1777578318 | 21.11° C | 64% | 1014.6 hPa | 0 mm | - | 941 W/m² | - |
| 1777574719 | 19.44° C | 69% | 1015.4 hPa | 0 mm | - | 893 W/m² | - |
| 1777574136 | 19.44° C | 70% | 1015.5 hPa | 0 mm | - | 878 W/m² | - |
| 1777572916 | 18.89° C | 72% | 1015.6 hPa | 0 mm | - | 843 W/m² | - |
| 1777567518 | 16.67° C | 78% | 1016.3 hPa | 0 mm | - | 613 W/m² | - |
| 1777563915 | 12.78° C | 94% | 1016.3 hPa | 0 mm | - | 311 W/m² | - |
| 1777559718 | 11.67° C | 97% | 1016.4 hPa | 0 mm | - | 64 W/m² | - |
| 1777554318 | 11.67° C | 97% | 1015.9 hPa | 0 mm | - | 1 W/m² | - |
* Rain latest hour (hover to see other rain measurements)
** Current wind speed in m/s (hover to see current wind gust speed)